Time;durP1;ratioP1;P1;durP2;ratioP2;P2;SDS_P1;SDS_P2;PMS_P1;PMS_P2;Temp;Humidity;BMP_temperature;BMP_pressure;BME280_temperature;BME280_humidity;BME280_pressure;Samples;Min_cycle;Max_cycle;Signal;HPM_P1;HPM_P2
2021/05/18 00:00:45;;;;;;;0.40;0.20;;;10.90;99.90;;;;;;5071769;28;20392;-75
2021/05/18 00:03:12;;;;;;;0.40;0.20;;;11.00;99.90;;;;;;5071916;28;20399;-75
2021/05/18 00:05:43;;;;;;;0.40;0.20;;;11.00;99.90;;;;;;5071497;28;20372;-76
2021/05/18 00:08:11;;;;;;;0.40;0.20;;;11.00;99.90;;;;;;5070904;28;20942;-75
2021/05/18 00:13:26;;;;;;;0.40;0.30;;;11.60;99.90;;;;;;5070865;28;20429;-76
2021/05/18 00:15:55;;;;;;;0.40;0.20;;;11.00;99.90;;;;;;5071920;28;20388;-76
2021/05/18 00:18:22;;;;;;;0.40;0.30;;;12.00;99.90;;;;;;5070836;28;20818;-76
2021/05/18 00:20:47;;;;;;;0.40;0.20;;;11.00;99.90;;;;;;5071682;28;20392;-76
2021/05/18 00:23:13;;;;;;;0.40;0.20;;;11.00;99.90;;;;;;5071383;28;20769;-77
2021/05/18 00:25:40;;;;;;;0.40;0.20;;;11.00;99.90;;;;;;5070874;28;20909;-76
2021/05/18 00:28:06;;;;;;;0.40;0.30;;;11.00;99.90;;;;;;5071670;28;20376;-77
2021/05/18 00:30:32;;;;;;;0.40;0.20;;;11.00;99.90;;;;;;5071144;28;20391;-75
2021/05/18 00:32:57;;;;;;;0.40;0.20;;;11.00;99.90;;;;;;5071588;28;20388;-75
2021/05/18 00:35:23;;;;;;;0.40;0.20;;;11.00;99.90;;;;;;5070460;28;20372;-77
2021/05/18 00:37:49;;;;;;;0.40;0.20;;;11.00;99.90;;;;;;5071206;28;20380;-79
2021/05/18 00:40:19;;;;;;;0.40;0.20;;;11.10;99.90;;;;;;5071166;28;20445;-77
2021/05/18 00:42:53;;;;;;;0.40;0.20;;;11.50;99.90;;;;;;5071320;28;20403;-74
2021/05/18 00:45:32;;;;;;;0.40;0.20;;;11.00;99.90;;;;;;5070687;28;20380;-75
2021/05/18 00:47:59;;;;;;;0.40;0.20;;;11.00;99.90;;;;;;5071165;28;20419;-76
2021/05/18 00:50:25;;;;;;;0.40;0.20;;;10.90;99.90;;;;;;5070532;28;20384;-76
2021/05/18 00:52:51;;;;;;;0.40;0.20;;;11.20;99.90;;;;;;5070924;28;20383;-77
2021/05/18 00:55:20;;;;;;;0.40;0.20;;;10.90;99.90;;;;;;5070565;28;20390;-77
2021/05/18 01:00:33;;;;;;;0.40;0.20;;;10.90;99.90;;;;;;5070459;28;20395;-76
2021/05/18 01:02:59;;;;;;;0.40;0.20;;;10.90;99.90;;;;;;5071086;28;20451;-75
2021/05/18 01:06:18;;;;;;;0.40;0.20;;;11.00;99.90;;;;;;5070067;28;20416;-75
2021/05/18 01:08:11;;;;;;;0.40;0.20;;;10.70;99.90;;;;;;5070585;28;20399;-77
2021/05/18 01:10:37;;;;;;;0.40;0.20;;;10.60;99.90;;;;;;5070393;28;20376;-77
2021/05/18 01:13:03;;;;;;;0.40;0.40;;;10.60;99.90;;;;;;5070752;28;20463;-77
2021/05/18 01:15:28;;;;;;;0.40;0.20;;;10.70;99.90;;;;;;5070310;28;20479;-76
2021/05/18 01:17:54;;;;;;;0.40;0.20;;;10.40;99.90;;;;;;5071015;28;20466;-76
2021/05/18 01:20:20;;;;;;;0.40;0.30;;;10.40;99.90;;;;;;5069959;28;20383;-77
2021/05/18 01:22:47;;;;;;;0.40;0.20;;;10.30;99.90;;;;;;5070942;28;20396;-77
2021/05/18 01:25:18;;;;;;;0.40;0.30;;;10.30;99.90;;;;;;5070709;28;20383;-76
2021/05/18 01:27:44;;;;;;;0.40;0.20;;;10.40;99.90;;;;;;5069237;28;20438;-76
2021/05/18 01:30:11;;;;;;;0.40;0.20;;;10.40;99.90;;;;;;5070736;28;20482;-76
2021/05/18 01:32:39;;;;;;;0.40;0.20;;;10.30;99.90;;;;;;5068917;28;20904;-77
2021/05/18 01:35:05;;;;;;;0.40;0.20;;;10.40;99.90;;;;;;5070524;28;20379;-77
2021/05/18 01:37:31;;;;;;;0.40;0.30;;;10.50;99.90;;;;;;5070099;28;20388;-77
2021/05/18 01:40:07;;;;;;;0.40;0.20;;;11.20;99.90;;;;;;5069420;28;20759;-76
2021/05/18 01:42:46;;;;;;;0.40;0.30;;;10.50;99.90;;;;;;5070119;28;20408;-76
2021/05/18 01:45:19;;;;;;;0.40;0.20;;;10.40;99.90;;;;;;5070187;28;20738;-76
2021/05/18 01:47:51;;;;;;;0.40;0.30;;;10.40;99.90;;;;;;5070083;28;20426;-76
2021/05/18 01:50:18;;;;;;;0.40;0.20;;;10.30;99.90;;;;;;5070202;28;20874;-76
2021/05/18 01:52:44;;;;;;;0.40;0.20;;;10.40;99.90;;;;;;5068679;28;20441;-76
2021/05/18 01:55:12;;;;;;;0.40;0.40;;;10.70;99.90;;;;;;5070509;28;20830;-76
2021/05/18 01:57:38;;;;;;;0.40;0.30;;;10.50;99.90;;;;;;5069571;28;20792;-76
2021/05/18 02:00:06;;;;;;;0.40;0.30;;;11.50;99.90;;;;;;5070605;28;20391;-76
2021/05/18 02:02:31;;;;;;;0.40;0.30;;;10.50;99.90;;;;;;5069637;28;20427;-77
2021/05/18 02:05:02;;;;;;;0.40;0.30;;;10.30;99.90;;;;;;5070533;28;20479;-76
2021/05/18 02:07:35;;;;;;;0.40;0.20;;;10.40;99.90;;;;;;5069527;28;20383;-76
2021/05/18 02:10:03;;;;;;;0.40;0.30;;;10.50;99.90;;;;;;5070678;28;20805;-76
2021/05/18 02:12:29;;;;;;;0.40;0.30;;;10.50;99.90;;;;;;5069820;28;20465;-77
2021/05/18 02:15:01;;;;;;;0.40;0.30;;;10.50;99.90;;;;;;5070311;28;20372;-77
2021/05/18 02:17:40;;;;;;;0.40;0.20;;;10.50;99.90;;;;;;5069807;28;20738;-77
2021/05/18 02:25:25;;;;;;;0.40;0.30;;;10.40;99.90;;;;;;5069613;28;20783;-76
2021/05/18 02:27:52;;;;;;;0.40;0.20;;;10.20;99.90;;;;;;5070383;28;20372;-77
2021/05/18 02:30:19;;;;;;;0.40;0.20;;;11.50;99.90;;;;;;5068891;28;20404;-77
2021/05/18 02:32:45;;;;;;;0.40;0.20;;;10.40;99.90;;;;;;5069761;28;20400;-78
2021/05/18 02:35:13;;;;;;;0.40;0.20;;;10.40;99.90;;;;;;5069651;28;20788;-77
2021/05/18 02:37:40;;;;;;;0.40;0.20;;;10.40;99.90;;;;;;5069648;28;20515;-78
2021/05/18 02:40:35;;;;;;;5.60;0.70;;;10.40;99.90;;;;;;5069690;28;20384;-78
2021/05/18 02:43:01;;;;;;;0.40;0.20;;;10.30;99.90;;;;;;5067435;28;20739;-77
2021/05/18 02:45:35;;;;;;;0.40;0.20;;;10.40;99.90;;;;;;5069449;28;20386;-78
2021/05/18 02:50:45;;;;;;;0.40;0.30;;;10.30;99.90;;;;;;5069424;28;20391;-79
2021/05/18 02:53:11;;;;;;;0.40;0.20;;;10.20;99.90;;;;;;5070111;28;20376;-79
2021/05/18 02:55:46;;;;;;;0.40;0.28;;;10.20;99.90;;;;;;5067983;28;20442;-78
2021/05/18 02:58:13;;;;;;;0.40;0.30;;;10.20;99.90;;;;;;5072109;28;20471;-77
2021/05/18 03:00:40;;;;;;;0.40;0.30;;;10.20;99.90;;;;;;5072921;28;20737;-76
2021/05/18 03:03:06;;;;;;;0.40;0.20;;;10.90;99.90;;;;;;5073383;28;20494;-75
2021/05/18 03:05:32;;;;;;;0.40;0.30;;;10.00;99.90;;;;;;5072753;28;20437;-78
2021/05/18 03:07:58;;;;;;;0.40;0.32;;;10.00;99.90;;;;;;5072114;28;20388;-77
2021/05/18 03:10:24;;;;;;;0.40;0.30;;;9.90;99.90;;;;;;5073214;28;20376;-76
2021/05/18 03:12:50;;;;;;;0.40;0.30;;;10.00;99.90;;;;;;5072700;28;20703;-74
2021/05/18 03:15:17;;;;;;;0.40;0.30;;;9.90;99.90;;;;;;5072884;28;20376;-74
2021/05/18 03:17:43;;;;;;;0.40;0.30;;;9.90;99.90;;;;;;5072732;28;20376;-74
2021/05/18 03:20:13;;;;;;;0.40;0.30;;;9.90;99.90;;;;;;5072960;28;20392;-74
2021/05/18 03:22:39;;;;;;;0.40;0.30;;;9.80;99.90;;;;;;5072458;28;20461;-74
2021/05/18 03:25:06;;;;;;;0.50;0.43;;;10.10;99.90;;;;;;5072859;28;20384;-74
2021/05/18 03:27:31;;;;;;;0.40;0.20;;;9.80;99.90;;;;;;5072093;28;20745;-74
2021/05/18 03:30:12;;;;;;;0.40;0.20;;;10.30;99.90;;;;;;5071635;28;20403;-74
2021/05/18 03:35:21;;;;;;;0.40;0.20;;;9.80;99.90;;;;;;5072413;28;20371;-73
2021/05/18 03:37:53;;;;;;;0.40;0.20;;;9.80;99.90;;;;;;5072468;28;20388;-74
2021/05/18 03:40:19;;;;;;;0.40;0.30;;;9.70;99.90;;;;;;5072735;28;20421;-74
2021/05/18 03:42:53;;;;;;;0.40;0.20;;;10.50;99.90;;;;;;5072091;28;20399;-73
2021/05/18 03:45:28;;;;;;;0.40;0.20;;;9.90;99.90;;;;;;5072756;28;20415;-73
2021/05/18 03:53:41;;;;;;;0.40;0.30;;;9.80;99.90;;;;;;5072748;28;20399;-73
2021/05/18 03:59:00;;;;;;;0.40;0.40;;;9.80;99.90;;;;;;5071834;28;20849;-73
2021/05/18 04:04:18;;;;;;;0.40;0.20;;;9.80;99.90;;;;;;5072616;28;20769;-73
2021/05/18 04:53:16;;;;;;;0.40;0.20;;;9.90;99.90;;;;;;5067302;28;20912;-74
2021/05/18 05:01:26;;;;;;;0.40;0.20;;;9.90;99.90;;;;;;5066544;28;20491;-73
2021/05/18 05:06:26;;;;;;;0.40;0.20;;;9.90;99.90;;;;;;5068771;28;20821;-79
2021/05/18 05:16:27;;;;;;;0.40;0.20;;;9.80;99.90;;;;;;5066474;28;20441;-75
2021/05/18 05:18:53;;;;;;;0.40;0.30;;;9.80;99.90;;;;;;5066655;28;20387;-73
2021/05/18 05:21:21;;;;;;;0.40;0.20;;;9.90;99.90;;;;;;5066969;28;20771;-74
2021/05/18 05:23:48;;;;;;;0.40;0.30;;;9.80;99.90;;;;;;5063877;28;20399;-73
2021/05/18 05:26:13;;;;;;;0.40;0.20;;;9.70;99.90;;;;;;5069807;28;20434;-73
2021/05/18 05:28:39;;;;;;;0.40;0.20;;;9.80;99.90;;;;;;5069241;28;20846;-74
2021/05/18 05:31:05;;;;;;;0.40;0.20;;;10.50;99.90;;;;;;5069811;28;20430;-72
2021/05/18 05:33:30;;;;;;;0.40;0.20;;;9.80;99.90;;;;;;5069976;28;20383;-76
2021/05/18 05:35:56;;;;;;;0.40;0.20;;;9.90;99.90;;;;;;5068736;28;20519;-74
2021/05/18 05:38:23;;;;;;;0.40;0.20;;;9.90;99.90;;;;;;5069440;28;20376;-73
2021/05/18 05:40:49;;;;;;;0.40;0.30;;;9.80;99.90;;;;;;5069476;28;20375;-73
2021/05/18 05:43:15;;;;;;;0.40;0.30;;;10.00;99.90;;;;;;5069180;28;20869;-76
2021/05/18 05:45:40;;;;;;;0.40;0.20;;;9.70;99.90;;;;;;5069341;28;20468;-74
2021/05/18 05:48:06;;;;;;;0.40;0.25;;;8.20;99.90;;;;;;5069562;28;20445;-75
2021/05/18 05:50:32;;;;;;;0.40;0.30;;;9.80;99.90;;;;;;5069807;28;20376;-74
2021/05/18 05:52:58;;;;;;;0.40;0.30;;;9.80;99.90;;;;;;5068081;28;20446;-75
2021/05/18 05:55:24;;;;;;;0.40;0.20;;;9.80;99.90;;;;;;5070339;28;20400;-76
2021/05/18 05:57:50;;;;;;;0.40;0.20;;;9.80;99.90;;;;;;5068209;28;20396;-75
2021/05/18 06:00:16;;;;;;;0.40;0.20;;;9.70;99.90;;;;;;5070333;28;20404;-76
2021/05/18 06:02:42;;;;;;;0.40;0.20;;;9.70;99.90;;;;;;5069513;28;20407;-77
2021/05/18 06:05:08;;;;;;;0.40;0.20;;;9.70;99.90;;;;;;5070004;28;20456;-75
2021/05/18 06:07:34;;;;;;;0.40;0.20;;;9.60;99.90;;;;;;5070261;28;20379;-73
2021/05/18 06:10:15;;;;;;;0.40;0.20;;;9.70;99.90;;;;;;5069066;28;20870;-73
2021/05/18 06:47:07;;;;;;;0.40;0.20;;;10.30;99.90;;;;;;5072766;28;20429;-76
2021/05/18 06:49:37;;;;;;;0.40;0.20;;;10.40;99.90;;;;;;5073764;28;20480;-77
2021/05/18 06:52:03;;;;;;;0.40;0.20;;;10.30;99.90;;;;;;5071692;28;20402;-77
2021/05/18 06:54:28;;;;;;;0.40;0.20;;;10.30;99.90;;;;;;5073283;28;20376;-81
2021/05/18 06:56:57;;;;;;;0.40;0.20;;;10.30;99.90;;;;;;5072848;28;20383;-78
2021/05/18 07:01:49;;;;;;;0.40;0.20;;;10.30;99.90;;;;;;5071462;28;20529;-77
2021/05/18 07:04:16;;;;;;;0.40;0.20;;;10.30;99.90;;;;;;5071990;28;20894;-77
2021/05/18 07:09:19;;;;;;;0.40;0.20;;;10.40;99.90;;;;;;5072566;28;20392;-76
2021/05/18 07:11:44;;;;;;;0.40;0.20;;;10.50;99.90;;;;;;5072504;28;20372;-76
2021/05/18 07:14:10;;;;;;;0.40;0.20;;;10.50;99.90;;;;;;5072265;28;20383;-80
2021/05/18 07:16:36;;;;;;;0.40;0.20;;;10.40;99.90;;;;;;5072361;28;20380;-77
2021/05/18 07:19:03;;;;;;;0.40;0.20;;;10.40;99.90;;;;;;5071818;28;20392;-77
2021/05/18 07:21:29;;;;;;;0.40;0.20;;;10.40;99.90;;;;;;5072668;28;20416;-78
2021/05/18 07:23:56;;;;;;;0.40;0.20;;;10.50;99.90;;;;;;5071746;28;20410;-78
2021/05/18 07:26:21;;;;;;;0.40;0.20;;;10.50;99.90;;;;;;5072984;28;20379;-78
2021/05/18 07:28:47;;;;;;;0.40;0.20;;;10.90;99.90;;;;;;5072203;28;20445;-75
2021/05/18 07:31:13;;;;;;;0.40;0.20;;;10.70;99.90;;;;;;5073130;28;20869;-76
2021/05/18 07:33:39;;;;;;;0.40;0.20;;;10.60;99.90;;;;;;5072854;28;20757;-76
2021/05/18 07:36:11;;;;;;;0.40;0.20;;;10.70;99.90;;;;;;5070472;28;20494;-76
2021/05/18 07:38:42;;;;;;;0.40;0.20;;;10.80;99.90;;;;;;5071718;28;20380;-77
2021/05/18 07:41:09;;;;;;;0.40;0.20;;;10.80;99.90;;;;;;5071962;28;20383;-77
2021/05/18 07:43:34;;;;;;;0.40;0.20;;;11.00;99.90;;;;;;5071214;28;20498;-77
2021/05/18 07:46:02;;;;;;;0.40;0.23;;;11.10;99.90;;;;;;5071384;28;20463;-77
2021/05/18 07:59:43;;;;;;;0.40;0.20;;;11.30;99.90;;;;;;5071908;28;20425;-78
2021/05/18 08:02:32;;;;;;;0.40;0.30;;;11.20;99.90;;;;;;5070639;28;20415;-77
2021/05/18 08:07:42;;;;;;;0.40;0.20;;;11.50;99.90;;;;;;5072060;28;20375;-77
2021/05/18 08:12:40;;;;;;;0.40;0.22;;;11.60;99.90;;;;;;5072392;28;20394;-78
2021/05/18 10:36:34;;;;;;;0.40;0.20;;;14.50;96.90;;;;;;5060703;28;20889;-74
2021/05/18 10:39:20;;;;;;;0.40;0.20;;;14.10;96.20;;;;;;5059138;28;20376;-73
2021/05/18 10:41:46;;;;;;;0.40;0.20;;;14.10;98.10;;;;;;5060651;28;20475;-73
2021/05/18 10:44:12;;;;;;;0.40;0.20;;;14.20;97.50;;;;;;5058518;28;20406;-74
2021/05/18 10:46:53;;;;;;;0.40;0.20;;;14.50;97.70;;;;;;5060008;28;20885;-77
2021/05/18 10:49:33;;;;;;;0.40;0.20;;;14.80;97.00;;;;;;5058948;28;20968;-73
2021/05/18 10:52:08;;;;;;;0.40;0.20;;;14.60;94.00;;;;;;5060044;28;20432;-71
2021/05/18 10:54:43;;;;;;;0.70;0.70;;;14.60;94.40;;;;;;5061155;28;20495;-72
2021/05/18 10:57:33;;;;;;;0.40;0.30;;;14.70;94.60;;;;;;5060344;28;20776;-73
2021/05/18 11:00:08;;;;;;;0.40;0.20;;;14.70;95.50;;;;;;5054298;28;20494;-75
2021/05/18 11:02:39;;;;;;;0.40;0.30;;;15.20;95.20;;;;;;5060760;28;21119;-74
2021/05/18 11:05:10;;;;;;;0.40;0.20;;;15.00;94.90;;;;;;5056530;28;20495;-75
2021/05/18 11:07:46;;;;;;;0.40;0.20;;;14.90;94.60;;;;;;5059509;28;20383;-73
2021/05/18 11:10:20;;;;;;;0.40;0.20;;;14.90;95.20;;;;;;5060734;28;20431;-74
2021/05/18 11:12:54;;;;;;;0.40;0.20;;;14.80;93.90;;;;;;5068815;28;20391;-72
2021/05/18 11:15:24;;;;;;;0.40;0.20;;;14.90;94.20;;;;;;5056947;28;20869;-73
2021/05/18 11:17:54;;;;;;;0.40;0.20;;;14.80;93.20;;;;;;5072202;28;20376;-74
2021/05/18 11:25:56;;;;;;;0.40;0.20;;;15.00;92.20;;;;;;5072858;28;20938;-73
2021/05/18 11:28:24;;;;;;;0.40;0.20;;;14.70;90.60;;;;;;5071248;28;20396;-72
2021/05/18 11:30:53;;;;;;;0.40;0.20;;;14.70;91.40;;;;;;5072811;28;20396;-73
2021/05/18 11:33:20;;;;;;;0.40;0.20;;;14.80;91.10;;;;;;5055809;28;20388;-74
2021/05/18 11:36:03;;;;;;;0.40;0.30;;;14.90;91.60;;;;;;5072622;28;20408;-73
2021/05/18 11:38:29;;;;;;;0.40;0.30;;;15.20;89.50;;;;;;5072686;28;20408;-75
2021/05/18 11:40:55;;;;;;;0.40;0.20;;;15.00;88.80;;;;;;5072452;28;20384;-73
2021/05/18 11:43:25;;;;;;;0.40;0.20;;;14.80;90.40;;;;;;5068277;28;20412;-76
2021/05/18 11:46:02;;;;;;;0.40;0.30;;;14.60;91.20;;;;;;5068915;28;20388;-74
2021/05/18 11:48:28;;;;;;;0.40;0.20;;;14.40;92.80;;;;;;5072395;28;20737;-73
2021/05/18 11:51:20;;;;;;;0.40;0.20;;;14.60;91.80;;;;;;5072696;28;20368;-73
2021/05/18 11:53:53;;;;;;;0.40;0.22;;;15.10;91.90;;;;;;5068143;28;20643;-73
2021/05/18 11:56:28;;;;;;;0.40;0.20;;;14.90;90.10;;;;;;5071919;28;20391;-72
2021/05/18 11:59:06;;;;;;;0.40;0.20;;;15.00;91.00;;;;;;5072324;28;20372;-74
2021/05/18 12:01:48;;;;;;;0.40;0.20;;;14.80;90.60;;;;;;5072141;28;20394;-72
2021/05/18 12:04:16;;;;;;;0.40;0.30;;;14.80;90.90;;;;;;5072011;28;20417;-72
2021/05/18 12:07:12;;;;;;;0.40;0.30;;;14.80;91.20;;;;;;5072119;28;20422;-73
2021/05/18 12:09:43;;;;;;;0.40;0.20;;;14.70;90.70;;;;;;5072122;28;20393;-72
2021/05/18 12:12:18;;;;;;;0.40;0.20;;;14.60;91.80;;;;;;5071602;28;20495;-73
2021/05/18 12:14:46;;;;;;;0.40;0.20;;;14.60;92.10;;;;;;5072387;28;20380;-72
2021/05/18 12:17:12;;;;;;;0.40;0.30;;;14.60;91.50;;;;;;5071866;28;20423;-72
2021/05/18 12:19:39;;;;;;;0.40;0.40;;;14.50;91.30;;;;;;5072347;28;20387;-72
2021/05/18 12:22:05;;;;;;;0.40;0.20;;;14.50;91.50;;;;;;5071231;28;20411;-73
2021/05/18 12:24:31;;;;;;;0.40;0.20;;;14.50;91.10;;;;;;5071955;28;20865;-72
2021/05/18 12:27:03;;;;;;;0.40;0.20;;;14.40;90.50;;;;;;5064575;28;20453;-73
2021/05/18 12:29:35;;;;;;;0.40;0.30;;;14.60;89.60;;;;;;5067417;28;20446;-72
2021/05/18 12:32:20;;;;;;;0.40;0.20;;;15.00;89.30;;;;;;5062238;28;20431;-78
2021/05/18 12:35:07;;;;;;;0.40;0.30;;;15.30;85.30;;;;;;5062788;28;20400;-72
2021/05/18 12:37:43;;;;;;;0.40;0.20;;;16.10;85.70;;;;;;5061546;28;20408;-71
2021/05/18 12:40:32;;;;;;;0.40;0.40;;;16.10;86.20;;;;;;5056916;28;20415;-77
2021/05/18 12:43:22;;;;;;;0.40;0.30;;;16.70;85.00;;;;;;5055876;28;20783;-77
2021/05/18 12:46:12;;;;;;;0.40;0.30;;;16.60;83.00;;;;;;5056934;28;20395;-77
2021/05/18 12:48:53;;;;;;;0.40;0.30;;;15.90;84.30;;;;;;5054202;28;21870;-75
2021/05/18 12:51:21;;;;;;;0.40;0.30;;;16.40;84.80;;;;;;5054251;28;20392;-75
2021/05/18 12:53:47;;;;;;;0.40;0.30;;;17.30;85.40;;;;;;5056878;28;20799;-78
2021/05/18 12:56:30;;;;;;;0.40;0.20;;;16.10;86.30;;;;;;5055183;28;20478;-76
2021/05/18 12:59:06;;;;;;;0.40;0.20;;;16.40;87.70;;;;;;5056861;28;20430;-75
2021/05/18 13:01:45;;;;;;;0.40;0.30;;;16.50;84.60;;;;;;5055289;28;21081;-74
2021/05/18 13:04:12;;;;;;;0.40;0.30;;;16.50;83.40;;;;;;5056022;28;20865;-80
2021/05/18 13:07:12;;;;;;;0.70;0.70;;;16.00;87.70;;;;;;5056413;28;20388;-77
2021/05/18 13:09:37;;;;;;;0.40;0.20;;;16.40;85.40;;;;;;5042819;28;20801;-78
2021/05/18 13:12:12;;;;;;;0.40;0.20;;;15.50;81.80;;;;;;5055220;28;20388;-76
2021/05/18 13:14:57;;;;;;;0.40;0.20;;;16.90;79.80;;;;;;5057844;28;20445;-78
2021/05/18 13:17:23;;;;;;;0.40;0.20;;;16.50;78.90;;;;;;5055603;28;20494;-78
2021/05/18 13:20:02;;;;;;;0.40;0.20;;;17.00;77.30;;;;;;5057070;28;20387;-74
2021/05/18 13:22:33;;;;;;;0.40;0.20;;;16.80;79.20;;;;;;5056805;28;20438;-74
2021/05/18 13:28:02;;;;;;;0.40;0.20;;;17.50;78.50;;;;;;5056329;28;20466;-77
2021/05/18 13:30:32;;;;;;;0.40;0.20;;;17.00;77.40;;;;;;5055767;28;20392;-74
2021/05/18 13:33:00;;;;;;;0.40;0.30;;;17.10;78.80;;;;;;5055950;28;20404;-74
2021/05/18 13:35:31;;;;;;;0.40;0.30;;;17.60;76.30;;;;;;5054731;28;21349;-73
2021/05/18 13:37:58;;;;;;;0.40;0.30;;;17.70;75.00;;;;;;5055992;28;20399;-77
2021/05/18 13:40:25;;;;;;;0.40;0.20;;;17.90;76.80;;;;;;5054573;28;20392;-81
2021/05/18 13:42:53;;;;;;;0.40;0.30;;;17.80;72.60;;;;;;5061053;28;20400;-73
2021/05/18 13:45:22;;;;;;;0.40;0.20;;;18.00;69.80;;;;;;5070387;28;20491;-74
2021/05/18 13:47:49;;;;;;;0.40;0.20;;;17.70;69.60;;;;;;5070691;28;20398;-73
2021/05/18 13:50:17;;;;;;;0.40;0.30;;;18.20;70.80;;;;;;5069382;28;20418;-75
2021/05/18 13:52:44;;;;;;;0.40;0.20;;;17.30;70.00;;;;;;5070094;28;20854;-72
2021/05/18 13:55:10;;;;;;;0.40;0.30;;;17.00;74.10;;;;;;5069587;28;20491;-74
2021/05/18 13:57:44;;;;;;;0.40;0.30;;;16.60;75.20;;;;;;5070398;28;20433;-73
2021/05/18 14:00:18;;;;;;;0.40;0.30;;;16.80;79.20;;;;;;5069465;28;20432;-72
2021/05/18 14:02:45;;;;;;;0.40;0.20;;;17.40;76.00;;;;;;5070172;28;20502;-72
2021/05/18 14:05:16;;;;;;;0.40;0.20;;;17.90;74.30;;;;;;5070182;28;20433;-72
2021/05/18 14:11:22;;;;;;;0.40;0.20;;;17.90;69.70;;;;;;5025067;28;20403;-77
2021/05/18 14:13:54;;;;;;;0.40;0.20;;;18.60;69.60;;;;;;5070115;28;20605;-72
2021/05/18 14:16:24;;;;;;;0.40;0.30;;;18.50;69.10;;;;;;5069313;28;20869;-73
2021/05/18 14:18:52;;;;;;;0.40;0.20;;;18.10;68.20;;;;;;5070082;28;20391;-73
2021/05/18 14:21:22;;;;;;;0.40;0.30;;;17.80;70.90;;;;;;5069946;28;20384;-72
2021/05/18 14:23:57;;;;;;;0.40;0.20;;;17.00;70.90;;;;;;5069041;28;20481;-73
2021/05/18 14:26:25;;;;;;;0.40;0.30;;;17.10;70.90;;;;;;5068863;28;20405;-73
2021/05/18 14:28:54;;;;;;;0.40;0.37;;;17.20;72.60;;;;;;5070510;28;20388;-73
2021/05/18 14:31:21;;;;;;;0.40;0.20;;;17.10;73.00;;;;;;5070015;28;20395;-74
2021/05/18 14:33:47;;;;;;;0.40;0.20;;;17.10;74.70;;;;;;5070472;28;20441;-74
2021/05/18 14:36:13;;;;;;;0.40;0.30;;;17.10;71.20;;;;;;5069876;28;20403;-75
2021/05/18 14:38:41;;;;;;;0.40;0.20;;;16.90;72.10;;;;;;5070434;28;20437;-74
2021/05/18 14:46:42;;;;;;;0.40;0.30;;;17.10;74.50;;;;;;5069963;28;20407;-74
2021/05/18 14:57:25;;;;;;;0.40;0.30;;;17.40;68.40;;;;;;5064151;28;20410;-74
2021/05/18 14:59:51;;;;;;;0.40;0.20;;;17.50;70.20;;;;;;5072754;28;20881;-75
2021/05/18 15:02:17;;;;;;;0.40;0.20;;;17.60;69.30;;;;;;5072782;28;20495;-74
2021/05/18 15:04:43;;;;;;;0.40;0.20;;;17.70;69.40;;;;;;5073893;28;20394;-74
2021/05/18 15:07:09;;;;;;;0.40;0.30;;;17.50;70.70;;;;;;5073719;28;20864;-74
2021/05/18 15:09:37;;;;;;;0.40;0.30;;;17.50;71.10;;;;;;5072042;28;20481;-73
2021/05/18 15:12:03;;;;;;;0.40;0.20;;;17.00;69.50;;;;;;5073711;28;20395;-78
2021/05/18 15:14:29;;;;;;;0.40;0.40;;;16.60;70.90;;;;;;5071718;28;20400;-75
2021/05/18 15:16:54;;;;;;;0.40;0.30;;;16.40;70.50;;;;;;5072632;28;20396;-75
2021/05/18 15:19:23;;;;;;;0.40;0.30;;;16.30;72.00;;;;;;5071705;28;20462;-76
2021/05/18 15:21:48;;;;;;;0.40;0.20;;;15.80;74.80;;;;;;5073669;28;20860;-76
2021/05/18 15:24:14;;;;;;;0.40;0.20;;;15.00;75.60;;;;;;5073210;28;20399;-77
2021/05/18 15:26:40;;;;;;;0.40;0.20;;;14.50;75.40;;;;;;5073732;28;20451;-73
2021/05/18 15:29:06;;;;;;;0.40;0.20;;;14.20;76.10;;;;;;5073419;28;20429;-73
2021/05/18 15:31:32;;;;;;;0.40;0.20;;;14.20;76.80;;;;;;5072988;28;20406;-73
2021/05/18 15:33:59;;;;;;;0.40;0.20;;;13.80;77.00;;;;;;5072936;28;20380;-74
2021/05/18 15:36:24;;;;;;;0.40;0.20;;;13.40;78.30;;;;;;5069502;28;20757;-73
2021/05/18 15:38:56;;;;;;;0.40;0.20;;;13.20;81.50;;;;;;5071657;28;20368;-73
2021/05/18 15:41:24;;;;;;;0.40;0.20;;;12.90;87.30;;;;;;5072226;28;20412;-73
2021/05/18 15:43:50;;;;;;;0.40;0.20;;;12.80;89.50;;;;;;5073256;28;20460;-70
2021/05/18 15:46:16;;;;;;;0.40;0.20;;;12.80;92.30;;;;;;5072697;28;20388;-71
2021/05/18 15:48:42;;;;;;;0.40;0.20;;;12.50;92.20;;;;;;5073356;28;20386;-71
2021/05/18 15:51:08;;;;;;;0.40;0.20;;;12.40;93.50;;;;;;5073325;28;20380;-71
2021/05/18 15:53:34;;;;;;;0.40;0.20;;;12.50;96.60;;;;;;5072243;28;20789;-73
2021/05/18 15:55:59;;;;;;;0.40;0.20;;;12.30;99.90;;;;;;5072918;28;20376;-71
2021/05/18 15:58:28;;;;;;;0.40;0.20;;;12.40;99.90;;;;;;5072048;28;20464;-71
2021/05/18 16:00:55;;;;;;;0.40;0.20;;;12.30;99.90;;;;;;5072423;28;20376;-71
2021/05/18 16:03:21;;;;;;;0.40;0.20;;;12.30;99.90;;;;;;5071320;28;20805;-71
2021/05/18 16:05:47;;;;;;;0.40;0.30;;;12.50;99.90;;;;;;5072024;28;20391;-71
2021/05/18 16:10:55;;;;;;;0.40;0.20;;;12.80;99.90;;;;;;5072632;28;20909;-71
2021/05/18 16:13:21;;;;;;;0.40;0.20;;;12.80;99.90;;;;;;5071460;28;20391;-72
2021/05/18 16:15:47;;;;;;;0.40;0.20;;;12.70;99.90;;;;;;5068153;28;20457;-71
2021/05/18 16:18:13;;;;;;;0.40;0.27;;;12.80;99.90;;;;;;5057806;28;20389;-71
2021/05/18 16:20:38;;;;;;;0.40;0.20;;;13.00;99.90;;;;;;5070918;28;20375;-71
2021/05/18 16:23:05;;;;;;;0.40;0.20;;;13.00;99.90;;;;;;5069645;28;20411;-72
2021/05/18 16:25:31;;;;;;;0.40;0.20;;;13.00;99.90;;;;;;5070569;28;20889;-71
2021/05/18 16:27:57;;;;;;;0.40;0.20;;;13.00;99.90;;;;;;5070195;28;20420;-72
2021/05/18 16:30:23;;;;;;;0.40;0.20;;;13.10;99.90;;;;;;5070771;28;20388;-72
2021/05/18 16:32:49;;;;;;;0.40;0.20;;;13.10;99.90;;;;;;5071631;28;20398;-71
2021/05/18 16:35:15;;;;;;;0.40;0.20;;;13.40;99.90;;;;;;5071082;28;20858;-72
2021/05/18 16:37:40;;;;;;;0.40;0.20;;;13.50;99.90;;;;;;5069355;28;20389;-71
2021/05/18 16:40:09;;;;;;;0.40;0.20;;;13.30;99.90;;;;;;5070589;28;20422;-73
2021/05/18 16:42:41;;;;;;;0.40;0.20;;;13.30;99.90;;;;;;5058359;28;20446;-72
2021/05/18 16:45:08;;;;;;;0.40;0.20;;;13.20;99.90;;;;;;5075903;28;20396;-73
2021/05/18 16:47:34;;;;;;;0.40;0.20;;;13.20;99.90;;;;;;5057662;28;20418;-71
2021/05/18 16:50:07;;;;;;;0.40;0.20;;;13.50;99.90;;;;;;5055310;28;20392;-73
2021/05/18 16:52:33;;;;;;;0.40;0.38;;;13.10;99.90;;;;;;5053363;28;20413;-74
2021/05/18 16:54:58;;;;;;;0.40;0.20;;;13.00;99.90;;;;;;5057326;28;20396;-73
2021/05/18 16:57:31;;;;;;;0.40;0.20;;;13.20;99.90;;;;;;5056604;28;20391;-76
2021/05/18 17:00:01;;;;;;;0.40;0.20;;;13.00;99.90;;;;;;5055498;28;20406;-73
2021/05/18 17:02:28;;;;;;;0.40;0.20;;;12.80;99.90;;;;;;5052023;28;20506;-73
2021/05/18 17:04:54;;;;;;;0.40;0.20;;;12.80;99.90;;;;;;5056252;28;20409;-77
2021/05/18 17:07:23;;;;;;;0.40;0.20;;;12.80;99.90;;;;;;5056710;28;20401;-78
2021/05/18 17:09:49;;;;;;;0.40;0.20;;;12.90;99.90;;;;;;5056928;28;20396;-75
2021/05/18 17:12:19;;;;;;;0.40;0.20;;;12.90;99.90;;;;;;5054752;28;20404;-74
2021/05/18 17:14:46;;;;;;;0.40;0.20;;;12.80;99.90;;;;;;5055427;28;20383;-74
2021/05/18 17:17:14;;;;;;;0.40;0.20;;;12.80;99.90;;;;;;5054175;28;20388;-72
2021/05/18 17:19:43;;;;;;;0.40;0.20;;;12.70;99.90;;;;;;5053044;28;20391;-73
2021/05/18 17:22:11;;;;;;;0.40;0.20;;;12.70;99.90;;;;;;5052430;28;20419;-75
2021/05/18 17:24:37;;;;;;;0.40;0.20;;;12.70;99.90;;;;;;5054036;28;20400;-75
2021/05/18 17:27:04;;;;;;;0.40;0.20;;;12.60;99.90;;;;;;5055802;28;21195;-72
2021/05/18 17:29:31;;;;;;;0.40;0.20;;;12.60;99.90;;;;;;5053190;28;20404;-74
2021/05/18 17:31:59;;;;;;;0.40;0.20;;;12.60;99.90;;;;;;5053059;28;20391;-78
2021/05/18 17:34:26;;;;;;;0.40;0.20;;;12.70;99.90;;;;;;5055634;28;20383;-76
2021/05/18 17:36:52;;;;;;;0.40;0.20;;;11.80;99.90;;;;;;5053235;28;20403;-77
2021/05/18 17:39:19;;;;;;;0.40;0.20;;;10.80;99.90;;;;;;5055021;28;20380;-75
2021/05/18 17:41:46;;;;;;;0.40;0.20;;;10.40;99.90;;;;;;5058220;28;20391;-74
2021/05/18 17:44:11;;;;;;;0.40;0.20;;;10.20;99.90;;;;;;5054936;28;21088;-75
2021/05/18 17:46:37;;;;;;;0.40;0.20;;;10.20;99.90;;;;;;5053323;28;20388;-74
2021/05/18 17:49:04;;;;;;;0.40;0.20;;;11.20;99.90;;;;;;5055253;28;20394;-76
2021/05/18 17:51:33;;;;;;;0.40;0.20;;;10.10;99.90;;;;;;5052660;28;20517;-75
2021/05/18 17:54:00;;;;;;;0.40;0.20;;;10.20;99.90;;;;;;5052859;28;20404;-74
2021/05/18 17:56:26;;;;;;;0.40;0.20;;;10.10;99.90;;;;;;5056076;28;20391;-75
2021/05/18 17:58:51;;;;;;;0.40;0.20;;;10.10;99.90;;;;;;5055193;28;20391;-73
2021/05/18 18:01:17;;;;;;;0.40;0.20;;;9.90;99.90;;;;;;5051145;28;20452;-74
2021/05/18 18:03:43;;;;;;;0.40;0.20;;;9.70;99.90;;;;;;5054236;28;20431;-74
2021/05/18 18:06:09;;;;;;;0.40;0.20;;;9.80;99.90;;;;;;5050616;28;21104;-76
2021/05/18 18:08:39;;;;;;;0.40;0.20;;;9.90;99.90;;;;;;5050382;28;20416;-74
2021/05/18 18:11:06;;;;;;;0.40;0.20;;;9.90;99.90;;;;;;5049221;28;20396;-74
2021/05/18 18:13:32;;;;;;;0.40;0.20;;;10.40;99.90;;;;;;5049044;28;20407;-74